バンコク/スワンナプーム の空港の天気 - METARとTAF

スワンナプーム国際空港 ( VTBS / BKK ) - タイ サムットプラーカーン県 (バンコク近郊)
飛行場実況気象(Metar)
観測時間02/23 20:30 ICT (02/23 13:30 UTC)
風向・風速南東 3m/s
視程10km以上
天気現象
少しの雲 雲底高度 910m
気温29℃
湿度66%
気圧1012hPa
METARVTBS 231330Z 14006KT 090V160 9999 FEW030 29/22 Q1012 NOSIG
過去の天気等 Google飛行場航空写真 Wunderground天気予報

過去48時間のMETAR

飛行場予報(TAF)
発表時間: 2/23 18:00 ICT (2/23 11:00 UTC)
予報対象時間: 23日19時 ICT ~ 25日1時 ICT
風向・風速南東 3m/s
視程9,000m
少しの雲 雲底高度 910m
24日1時 ICT ~ 24日3時 ICT に徐々に
風向・風速北東 3m/s
視程5,000m
天気現象もや
少しの雲 雲底高度 610m
全天の4割程度の雲 雲底高度 1,070m
24日6時 ICT ~ 24日9時 ICT に一時的に
視程3,000m
天気現象雷雨
少しの雲 雲底高度 370m
少しの積乱雲 雲底高度 550m
全天の4割程度の雲 雲底高度 1,070m
24日8時 ICT ~ 24日10時 ICT に徐々に
視程8,000m
天気現象運行に影響にある天気現象が終了
少しの雲 雲底高度 610m
24日15時 ICT ~ 24日17時 ICT に徐々に
風向・風速北北西 3m/s
TAF VTBS 231100Z 2312/2418 14005KT 9000 FEW030
BECMG 2318/2320 04005KT 5000 BR FEW020 SCT035
TEMPO 2323/2402 3000 TSRA FEW012 FEW018CB SCT035
BECMG 2401/2403 8000 NSW FEW020
BECMG 2408/2410 34005KT